createdAt,value
2023-04-26T00:02:15.860Z,60.97
2023-04-26T00:04:42.474Z,60.87
2023-04-26T00:07:09.010Z,60.80
2023-04-26T00:09:35.683Z,60.62
2023-04-26T00:12:02.821Z,61.25
2023-04-26T00:14:29.343Z,61.75
2023-04-26T00:16:56.312Z,62.82
2023-04-26T00:19:24.016Z,62.67
2023-04-26T00:21:50.475Z,62.92
2023-04-26T00:24:17.021Z,61.83
2023-04-26T00:26:43.483Z,61.82
2023-04-26T00:29:09.954Z,62.45
2023-04-26T00:31:36.508Z,62.19
2023-04-26T00:34:03.004Z,62.78
2023-04-26T00:36:29.537Z,63.13
2023-04-26T00:38:56.048Z,62.84
2023-04-26T00:41:22.631Z,63.25
2023-04-26T00:43:49.145Z,63.21
2023-04-26T00:46:15.764Z,63.51
2023-04-26T00:48:42.566Z,63.23
2023-04-26T00:51:09.651Z,63.29
2023-04-26T00:53:36.615Z,62.97
2023-04-26T00:56:06.669Z,62.76
2023-04-26T00:58:33.314Z,62.10
2023-04-26T01:00:59.899Z,61.46
2023-04-26T01:03:26.727Z,62.20
2023-04-26T01:05:53.526Z,62.82
2023-04-26T01:08:21.778Z,63.19
2023-04-26T01:10:52.980Z,62.85
2023-04-26T01:13:19.457Z,62.48
2023-04-26T01:15:47.773Z,62.14
2023-04-26T01:18:15.192Z,61.68
2023-04-26T01:20:42.973Z,61.41
2023-04-26T01:23:11.622Z,62.28
2023-04-26T01:25:38.782Z,62.87
2023-04-26T01:28:05.718Z,63.76
2023-04-26T01:30:32.172Z,63.49
2023-04-26T01:32:58.722Z,62.92
2023-04-26T01:35:25.343Z,62.40
2023-04-26T01:37:51.800Z,62.05
2023-04-26T01:40:18.554Z,61.90
2023-04-26T01:42:45.085Z,61.52
2023-04-26T01:45:12.152Z,60.96
2023-04-26T01:47:38.623Z,61.25
2023-04-26T01:50:06.239Z,61.18
2023-04-26T01:52:32.726Z,61.34
2023-04-26T01:54:59.267Z,61.45
2023-04-26T01:57:25.750Z,61.07
2023-04-26T01:59:52.187Z,60.72
2023-04-26T02:02:18.991Z,60.37
2023-04-26T02:04:45.527Z,60.57
2023-04-26T02:07:11.992Z,60.60
2023-04-26T02:09:38.456Z,60.66
2023-04-26T02:12:05.144Z,60.56
2023-04-26T02:14:32.177Z,61.09
2023-04-26T02:16:58.761Z,61.31
2023-04-26T02:19:25.823Z,61.96
2023-04-26T02:21:55.811Z,61.84
2023-04-26T02:24:25.009Z,62.53
2023-04-26T02:26:52.297Z,61.56
2023-04-26T02:29:22.683Z,61.22
2023-04-26T02:31:53.427Z,61.44
2023-04-26T02:34:19.924Z,61.06
2023-04-26T02:36:46.648Z,61.13
2023-04-26T02:39:13.366Z,60.92
2023-04-26T02:41:39.909Z,61.16
2023-04-26T02:44:07.516Z,61.62
2023-04-26T02:46:34.155Z,62.28
2023-04-26T02:49:00.787Z,62.14
2023-04-26T02:51:27.383Z,62.42
2023-04-26T02:53:53.894Z,62.70
2023-04-26T02:56:20.557Z,62.56
2023-04-26T02:58:47.123Z,62.56
2023-04-26T03:01:14.584Z,62.88
2023-04-26T03:03:41.307Z,63.50
2023-04-26T03:06:08.139Z,63.54
2023-04-26T03:08:36.529Z,62.75
2023-04-26T03:11:03.512Z,62.38
2023-04-26T03:13:30.073Z,62.75
2023-04-26T03:15:56.598Z,62.44
2023-04-26T03:18:23.058Z,63.34
2023-04-26T03:20:49.858Z,64.16
2023-04-26T03:23:16.368Z,64.70
2023-04-26T03:25:42.917Z,64.09
2023-04-26T03:28:09.387Z,63.41
2023-04-26T03:30:35.905Z,63.40
2023-04-26T03:33:02.550Z,63.75
2023-04-26T03:35:29.064Z,63.94
2023-04-26T03:37:57.340Z,63.73
2023-04-26T03:40:25.258Z,63.19
2023-04-26T03:42:51.904Z,63.62
2023-04-26T03:45:18.745Z,63.74
2023-04-26T03:47:45.385Z,63.56
2023-04-26T03:50:12.507Z,63.10
2023-04-26T03:52:39.003Z,62.74
2023-04-26T03:55:09.028Z,63.34
2023-04-26T03:57:36.196Z,64.05
2023-04-26T04:00:06.522Z,64.02
2023-04-26T04:02:33.522Z,64.10
2023-04-26T04:05:00.434Z,63.51
2023-04-26T04:07:27.231Z,62.94
2023-04-26T04:09:53.722Z,62.57
2023-04-26T04:12:20.268Z,62.31
2023-04-26T04:14:47.289Z,62.23
2023-04-26T04:17:13.724Z,62.53
2023-04-26T04:19:40.193Z,63.21
2023-04-26T04:22:06.968Z,63.99
2023-04-26T04:24:34.450Z,63.82
2023-04-26T04:27:01.571Z,63.58
2023-04-26T04:29:28.072Z,63.05
2023-04-26T04:31:54.664Z,62.99
2023-04-26T04:34:21.192Z,63.55
2023-04-26T04:36:47.652Z,63.91
2023-04-26T04:39:16.154Z,63.75
2023-04-26T04:41:49.500Z,63.38
2023-04-26T04:44:16.340Z,62.92
2023-04-26T04:46:43.764Z,62.67
2023-04-26T04:49:12.517Z,62.35
2023-04-26T04:51:39.562Z,62.16
2023-04-26T04:54:14.161Z,62.24
2023-04-26T04:56:41.209Z,62.55
2023-04-26T04:59:08.492Z,62.50
2023-04-26T05:01:36.864Z,63.20
2023-04-26T05:04:03.920Z,63.53
2023-04-26T05:06:34.105Z,63.73
2023-04-26T05:09:01.457Z,63.97
2023-04-26T05:11:28.102Z,64.36
2023-04-26T05:13:54.818Z,64.26
2023-04-26T05:16:21.391Z,63.60
2023-04-26T05:18:47.926Z,63.30
2023-04-26T05:21:14.408Z,63.81
2023-04-26T05:23:40.933Z,63.87
2023-04-26T05:26:14.515Z,64.07
2023-04-26T05:28:41.995Z,63.64
2023-04-26T05:31:11.436Z,63.85
2023-04-26T05:33:38.438Z,63.65
2023-04-26T05:36:05.717Z,63.63
2023-04-26T05:38:32.261Z,63.18
2023-04-26T05:40:58.717Z,63.40
2023-04-26T05:43:25.171Z,63.83
2023-04-26T05:45:56.856Z,64.11
2023-04-26T05:48:25.072Z,64.41
2023-04-26T05:50:52.611Z,64.23
2023-04-26T05:53:20.591Z,64.71
2023-04-26T05:55:47.594Z,65.21
2023-04-26T05:58:14.162Z,65.29
2023-04-26T06:00:41.462Z,65.44
2023-04-26T06:03:08.619Z,65.26
2023-04-26T06:05:38.267Z,65.13
2023-04-26T06:08:05.754Z,65.13
2023-04-26T06:10:32.400Z,65.03
2023-04-26T06:12:58.872Z,64.70
2023-04-26T06:15:25.417Z,64.03
2023-04-26T06:17:51.967Z,63.60
2023-04-26T06:20:18.459Z,63.55
2023-04-26T06:22:44.924Z,62.99
2023-04-26T06:25:11.487Z,63.60
2023-04-26T06:27:39.117Z,63.34
2023-04-26T06:30:07.743Z,62.54
2023-04-26T06:32:34.355Z,62.17
2023-04-26T06:35:01.134Z,62.27
2023-04-26T06:37:28.218Z,62.20
2023-04-26T06:39:54.850Z,61.92
2023-04-26T06:42:21.369Z,61.91
2023-04-26T06:44:47.841Z,61.94
2023-04-26T06:47:14.574Z,62.95
2023-04-26T06:49:41.121Z,63.24
2023-04-26T06:52:09.341Z,63.52
2023-04-26T06:54:42.758Z,63.42
2023-04-26T06:57:16.527Z,63.32
2023-04-26T06:59:43.051Z,63.32
2023-04-26T07:02:09.569Z,62.33
2023-04-26T07:04:36.777Z,62.26
2023-04-26T07:07:03.609Z,62.09
2023-04-26T07:09:30.105Z,62.06
2023-04-26T07:11:56.566Z,61.21
2023-04-26T07:14:24.366Z,60.84
2023-04-26T07:16:50.814Z,60.36
2023-04-26T07:19:17.955Z,59.65
2023-04-26T07:21:44.488Z,59.08
2023-04-26T07:24:10.990Z,58.15
2023-04-26T07:26:37.470Z,58.62
2023-04-26T07:29:03.948Z,57.86
2023-04-26T07:31:32.076Z,57.40
2023-04-26T07:33:58.972Z,57.21
2023-04-26T07:36:26.460Z,56.76
2023-04-26T07:38:53.114Z,56.53
2023-04-26T07:41:19.614Z,56.15
2023-04-26T07:43:46.088Z,55.90
2023-04-26T07:46:12.696Z,56.46
2023-04-26T07:48:39.296Z,55.42
2023-04-26T07:51:12.001Z,55.51
2023-04-26T07:53:39.761Z,54.47
2023-04-26T07:56:08.296Z,53.92
2023-04-26T07:58:36.588Z,54.25
2023-04-26T08:01:04.098Z,53.86
2023-04-26T08:03:30.846Z,52.88
2023-04-26T08:05:59.061Z,52.52
2023-04-26T08:08:29.455Z,51.86
2023-04-26T08:10:56.397Z,51.53
2023-04-26T08:13:23.110Z,51.76
2023-04-26T08:15:49.757Z,51.35
2023-04-26T08:18:16.330Z,50.68
2023-04-26T08:20:42.918Z,50.61
2023-04-26T08:23:09.627Z,50.33
2023-04-26T08:25:36.289Z,49.55
2023-04-26T08:28:02.929Z,49.92
2023-04-26T08:30:29.574Z,49.29
2023-04-26T08:32:56.559Z,49.46
2023-04-26T08:35:23.260Z,49.35
2023-04-26T08:37:49.789Z,48.26
2023-04-26T08:40:27.070Z,46.71
2023-04-26T08:42:53.923Z,46.85
2023-04-26T08:45:21.585Z,47.11
2023-04-26T08:47:51.590Z,47.19
2023-04-26T08:50:23.570Z,46.42
2023-04-26T08:52:52.629Z,46.23
2023-04-26T08:55:21.701Z,45.00
2023-04-26T08:57:50.677Z,45.30
2023-04-26T09:00:19.638Z,45.02
2023-04-26T09:02:51.954Z,45.17
2023-04-26T09:05:27.191Z,43.94
2023-04-26T09:07:58.991Z,43.53
2023-04-26T09:10:26.305Z,43.26
2023-04-26T09:12:54.258Z,42.51
2023-04-26T09:15:23.182Z,41.91
2023-04-26T09:17:51.359Z,42.02
2023-04-26T09:20:30.305Z,41.18
2023-04-26T09:23:08.946Z,41.69
2023-04-26T09:25:37.092Z,42.27
2023-04-26T09:28:18.393Z,42.20
2023-04-26T09:30:44.906Z,41.70
2023-04-26T09:33:11.455Z,41.18
2023-04-26T09:35:40.789Z,39.69
2023-04-26T09:38:14.015Z,39.86
2023-04-26T09:40:44.930Z,40.07
2023-04-26T09:43:37.346Z,40.61
2023-04-26T09:46:03.833Z,40.38
2023-04-26T09:48:34.866Z,37.53
2023-04-26T09:51:04.158Z,38.47
2023-04-26T09:53:36.897Z,38.60
2023-04-26T09:56:14.872Z,38.81
2023-04-26T09:58:43.976Z,39.22
2023-04-26T10:01:11.875Z,37.96
2023-04-26T10:03:39.655Z,38.71
2023-04-26T10:06:06.892Z,38.62
2023-04-26T10:08:34.442Z,39.55
2023-04-26T10:11:04.060Z,39.42
2023-04-26T10:13:34.672Z,39.08
2023-04-26T10:16:02.248Z,39.27
2023-04-26T10:18:29.622Z,39.59
2023-04-26T10:21:02.115Z,39.27
2023-04-26T10:23:29.668Z,39.33
2023-04-26T10:25:56.416Z,39.79
2023-04-26T10:28:49.785Z,38.00
2023-04-26T10:31:18.087Z,39.39
2023-04-26T10:33:44.623Z,39.55
2023-04-26T10:36:14.377Z,39.30
2023-04-26T10:39:24.351Z,38.05
2023-04-26T10:41:50.839Z,39.80
2023-04-26T10:44:41.731Z,38.02
2023-04-26T10:47:31.583Z,37.82
2023-04-26T10:50:10.078Z,37.40
2023-04-26T10:52:58.852Z,37.82
2023-04-26T10:55:41.764Z,36.77
2023-04-26T10:58:31.995Z,36.78
2023-04-26T11:01:19.022Z,36.28
2023-04-26T11:03:58.413Z,37.46
2023-04-26T11:06:26.856Z,35.77
2023-04-26T11:08:54.458Z,33.72
2023-04-26T11:11:26.340Z,34.81
2023-04-26T11:13:52.864Z,34.89
2023-04-26T11:16:19.656Z,35.06
2023-04-26T11:18:47.740Z,35.92
2023-04-26T11:21:17.947Z,35.96
2023-04-26T11:23:54.590Z,34.72
2023-04-26T11:26:21.059Z,35.17
2023-04-26T11:28:49.512Z,36.22
2023-04-26T11:31:18.899Z,36.51
2023-04-26T11:33:45.994Z,37.49
2023-04-26T11:36:14.095Z,37.45
2023-04-26T11:38:40.870Z,37.29
2023-04-26T11:41:08.091Z,36.83
2023-04-26T11:43:39.768Z,36.25
2023-04-26T11:46:09.045Z,34.85
2023-04-26T11:48:38.334Z,34.48
2023-04-26T11:51:08.094Z,33.77
2023-04-26T11:53:43.122Z,33.75
2023-04-26T11:56:20.530Z,33.36
2023-04-26T11:58:52.776Z,33.87
2023-04-26T12:01:25.309Z,34.15
2023-04-26T12:04:00.124Z,33.74
2023-04-26T12:06:41.608Z,33.39
2023-04-26T12:09:11.575Z,33.91
2023-04-26T12:11:39.081Z,34.63
2023-04-26T12:14:07.674Z,34.20
2023-04-26T12:16:37.074Z,34.37
2023-04-26T12:19:08.105Z,34.15
2023-04-26T12:21:44.424Z,33.36
2023-04-26T12:24:34.355Z,32.21
2023-04-26T12:27:03.093Z,32.73
2023-04-26T12:29:31.919Z,33.17
2023-04-26T12:31:59.700Z,32.83
2023-04-26T12:34:26.357Z,33.30
2023-04-26T12:36:53.271Z,33.31
2023-04-26T12:39:19.766Z,31.80
2023-04-26T12:41:46.566Z,32.52
2023-04-26T12:44:14.439Z,32.43
2023-04-26T12:46:41.151Z,31.45
2023-04-26T12:49:07.863Z,30.80
2023-04-26T12:51:34.399Z,31.19
2023-04-26T12:54:00.907Z,31.27
2023-04-26T12:56:29.106Z,31.44
2023-04-26T12:58:55.748Z,31.84
2023-04-26T13:01:22.338Z,32.24
2023-04-26T13:03:49.110Z,31.72
2023-04-26T13:06:16.037Z,31.79
2023-04-26T13:08:42.666Z,31.59
2023-04-26T13:11:09.419Z,31.52
2023-04-26T13:13:43.024Z,31.94
2023-04-26T13:16:12.604Z,31.95
2023-04-26T13:18:39.968Z,32.15
2023-04-26T13:21:06.934Z,32.66
2023-04-26T13:23:33.455Z,31.75
2023-04-26T13:25:59.927Z,31.63
2023-04-26T13:28:26.426Z,31.71
2023-04-26T13:30:52.967Z,31.32
2023-04-26T13:33:21.293Z,31.52
2023-04-26T13:35:48.134Z,31.39
2023-04-26T13:38:15.848Z,31.18
2023-04-26T13:40:42.967Z,31.89
2023-04-26T13:43:09.702Z,31.32
2023-04-26T13:45:36.633Z,30.80
2023-04-26T13:48:03.498Z,31.21
2023-04-26T13:50:30.014Z,31.77
2023-04-26T13:52:56.624Z,32.07
2023-04-26T13:55:23.407Z,31.36
2023-04-26T13:57:49.935Z,31.16
2023-04-26T14:00:17.471Z,30.57
2023-04-26T14:02:44.172Z,30.99
2023-04-26T14:05:11.075Z,30.17
2023-04-26T14:07:37.724Z,29.42
2023-04-26T14:10:04.643Z,29.18
2023-04-26T14:12:31.233Z,29.66
2023-04-26T14:14:57.762Z,28.87
2023-04-26T14:17:25.499Z,28.01
2023-04-26T14:19:54.552Z,28.58
2023-04-26T14:22:21.350Z,30.04
2023-04-26T14:24:48.029Z,31.17
2023-04-26T14:27:14.757Z,31.19
2023-04-26T14:29:42.256Z,30.91
2023-04-26T14:32:08.850Z,31.17
2023-04-26T14:34:39.816Z,30.79
2023-04-26T14:37:06.748Z,31.31
2023-04-26T14:39:33.794Z,30.67
2023-04-26T14:42:00.554Z,30.83
2023-04-26T14:44:28.729Z,30.42
2023-04-26T14:46:55.521Z,30.06
2023-04-26T14:49:22.083Z,30.55
2023-04-26T14:51:48.962Z,31.01
2023-04-26T14:54:18.099Z,31.53
2023-04-26T14:56:44.711Z,31.65
2023-04-26T14:59:11.266Z,31.68
2023-04-26T15:01:38.407Z,31.17
2023-04-26T15:04:05.263Z,31.19
2023-04-26T15:06:33.350Z,31.16
2023-04-26T15:09:00.103Z,31.40
2023-04-26T15:11:26.592Z,31.56
2023-04-26T15:13:53.060Z,31.26
2023-04-26T15:16:19.591Z,31.15
2023-04-26T15:18:46.266Z,31.18
2023-04-26T15:21:20.419Z,31.02
2023-04-26T15:23:47.642Z,30.79
2023-04-26T15:26:14.578Z,30.57
2023-04-26T15:28:41.120Z,30.84
2023-04-26T15:31:11.616Z,30.91
2023-04-26T15:33:38.350Z,31.04
2023-04-26T15:36:05.447Z,30.68
2023-04-26T15:38:34.761Z,30.23
2023-04-26T15:41:01.240Z,29.54
2023-04-26T15:43:27.777Z,29.66
2023-04-26T15:45:54.712Z,29.56
2023-04-26T15:48:21.688Z,29.67
2023-04-26T15:50:48.183Z,29.54
2023-04-26T15:53:14.711Z,29.49
2023-04-26T15:55:41.501Z,29.50
2023-04-26T15:58:08.069Z,29.55
2023-04-26T16:00:36.236Z,29.17
2023-04-26T16:03:02.901Z,29.62
2023-04-26T16:05:31.404Z,29.29
2023-04-26T16:07:57.992Z,29.62
2023-04-26T16:10:24.500Z,29.76
2023-04-26T16:12:51.064Z,29.99
2023-04-26T16:15:17.742Z,30.01
2023-04-26T16:17:44.302Z,29.66
2023-04-26T16:20:11.468Z,29.78
2023-04-26T16:22:37.928Z,29.20
2023-04-26T16:25:06.604Z,29.33
2023-04-26T16:27:33.134Z,29.28
2023-04-26T16:29:59.669Z,29.27
2023-04-26T16:32:26.595Z,29.48
2023-04-26T16:34:53.371Z,29.00
2023-04-26T16:39:46.405Z,28.05
2023-04-26T16:42:12.945Z,28.41
2023-04-26T16:44:40.318Z,28.76
2023-04-26T16:47:06.887Z,28.87
2023-04-26T16:49:33.377Z,29.64
2023-04-26T16:52:00.004Z,29.90
2023-04-26T16:54:26.549Z,30.32
2023-04-26T16:56:53.822Z,31.15
2023-04-26T16:59:20.671Z,31.58
2023-04-26T17:01:47.487Z,31.37
2023-04-26T17:04:14.450Z,31.44
2023-04-26T17:06:41.248Z,31.55
2023-04-26T17:09:08.647Z,31.51
2023-04-26T17:11:37.336Z,31.75
2023-04-26T17:14:04.360Z,32.28
2023-04-26T17:16:31.087Z,32.50
2023-04-26T17:18:58.257Z,32.71
2023-04-26T17:21:24.841Z,33.33
2023-04-26T17:23:51.553Z,33.25
2023-04-26T17:26:18.160Z,33.00
2023-04-26T17:28:44.655Z,32.45
2023-04-26T17:31:11.149Z,33.35
2023-04-26T17:33:37.719Z,33.20
2023-04-26T17:36:04.975Z,33.33
2023-04-26T17:38:31.457Z,33.61
2023-04-26T17:40:59.329Z,33.31
2023-04-26T17:43:25.912Z,33.24
2023-04-26T17:45:52.459Z,33.31
2023-04-26T17:48:19.059Z,33.41
2023-04-26T17:50:45.713Z,32.99
2023-04-26T17:53:12.349Z,33.43
2023-04-26T17:55:38.869Z,33.82
2023-04-26T17:58:05.607Z,33.44
2023-04-26T18:00:32.121Z,33.72
2023-04-26T18:02:58.968Z,33.92
2023-04-26T18:05:26.062Z,33.44
2023-04-26T18:07:52.609Z,34.35
2023-04-26T18:10:19.253Z,33.54
2023-04-26T18:12:46.178Z,34.31
2023-04-26T18:15:13.836Z,34.18
2023-04-26T18:17:41.429Z,34.13
2023-04-26T18:20:09.269Z,34.30
2023-04-26T18:22:35.813Z,34.27
2023-04-26T18:25:02.343Z,34.09
2023-04-26T18:27:28.852Z,34.21
2023-04-26T18:29:55.408Z,34.40
2023-04-26T18:32:21.921Z,35.34
2023-04-26T18:34:48.439Z,35.34
2023-04-26T18:37:15.150Z,35.86
2023-04-26T18:39:41.671Z,35.71
2023-04-26T18:42:08.289Z,36.02
2023-04-26T18:44:34.794Z,36.34
2023-04-26T18:47:01.355Z,37.24
2023-04-26T18:49:27.925Z,37.22
2023-04-26T18:51:54.717Z,36.99
2023-04-26T18:54:21.294Z,37.20
2023-04-26T18:56:47.843Z,38.14
2023-04-26T18:59:14.323Z,38.12
2023-04-26T19:01:41.109Z,38.55
2023-04-26T19:04:09.026Z,38.36
2023-04-26T19:06:35.688Z,38.75
2023-04-26T19:09:02.465Z,38.48
2023-04-26T19:11:28.969Z,38.95
2023-04-26T19:13:55.482Z,39.51
2023-04-26T19:16:22.263Z,39.80
2023-04-26T19:18:49.006Z,40.28
2023-04-26T19:21:16.084Z,40.41
2023-04-26T19:23:44.292Z,40.41
2023-04-26T19:26:14.964Z,40.97
2023-04-26T19:28:41.542Z,40.38
2023-04-26T19:31:08.233Z,40.30
2023-04-26T19:33:34.840Z,39.99
2023-04-26T19:36:01.327Z,40.03
2023-04-26T19:38:28.621Z,39.97
2023-04-26T19:40:55.084Z,39.72
2023-04-26T19:43:21.633Z,39.86
2023-04-26T19:45:48.222Z,39.49
2023-04-26T19:48:14.934Z,39.67
2023-04-26T19:50:44.206Z,39.54
2023-04-26T19:53:13.187Z,39.65
2023-04-26T19:55:42.097Z,39.64
2023-04-26T19:58:10.444Z,39.64
2023-04-26T20:00:38.622Z,39.82
2023-04-26T20:03:05.853Z,40.22
2023-04-26T20:05:33.421Z,40.09
2023-04-26T20:07:59.958Z,40.55
2023-04-26T20:10:26.612Z,40.32
2023-04-26T20:12:53.257Z,40.43
2023-04-26T20:15:20.037Z,40.31
2023-04-26T20:17:46.852Z,40.61
2023-04-26T20:20:13.743Z,40.89
2023-04-26T20:22:40.728Z,40.72
2023-04-26T20:25:07.799Z,41.43
2023-04-26T20:27:34.363Z,41.56
2023-04-26T20:30:00.998Z,42.36
2023-04-26T20:32:27.692Z,42.97
2023-04-26T20:34:54.230Z,43.24
2023-04-26T20:37:21.760Z,44.06
2023-04-26T20:39:48.894Z,44.35
2023-04-26T20:42:15.631Z,44.40
2023-04-26T20:44:42.425Z,44.52
2023-04-26T20:47:08.958Z,44.62
2023-04-26T20:49:35.616Z,45.04
2023-04-26T20:52:02.063Z,45.40
2023-04-26T20:54:28.509Z,45.46
2023-04-26T20:56:55.389Z,45.64
2023-04-26T20:59:22.666Z,46.11
2023-04-26T21:01:50.527Z,45.19
2023-04-26T21:04:17.258Z,45.30
2023-04-26T21:06:43.824Z,45.72
2023-04-26T21:09:10.548Z,45.78
2023-04-26T21:11:37.263Z,45.89
2023-04-26T21:14:04.268Z,46.29
2023-04-26T21:16:30.879Z,46.24
2023-04-26T21:18:57.336Z,47.08
2023-04-26T21:23:50.829Z,46.79
2023-04-26T21:26:17.307Z,47.30
2023-04-26T21:28:43.773Z,47.31
2023-04-26T21:31:10.463Z,47.40
2023-04-26T21:33:36.971Z,46.26
2023-04-26T21:36:03.810Z,46.03
2023-04-26T21:38:30.297Z,46.30
2023-04-26T21:40:56.794Z,46.71
2023-04-26T21:43:23.514Z,46.97
2023-04-26T21:45:50.765Z,46.04
2023-04-26T21:48:17.267Z,46.00
2023-04-26T21:50:43.866Z,46.74
2023-04-26T21:53:10.615Z,47.32
2023-04-26T21:55:37.133Z,47.90
2023-04-26T21:58:03.608Z,47.22
2023-04-26T22:00:30.122Z,47.70
2023-04-26T22:02:56.892Z,47.86
2023-04-26T22:05:25.850Z,47.04
2023-04-26T22:07:54.414Z,47.77
2023-04-26T22:10:21.439Z,47.11
2023-04-26T22:12:47.959Z,47.95
2023-04-26T22:15:14.578Z,47.44
2023-04-26T22:17:41.181Z,47.09
2023-04-26T22:20:08.431Z,47.89
2023-04-26T22:22:34.928Z,47.77
2023-04-26T22:25:01.536Z,47.53
2023-04-26T22:27:29.019Z,47.04
2023-04-26T22:29:55.465Z,46.96
2023-04-26T22:32:22.092Z,47.41
2023-04-26T22:34:49.005Z,47.80
2023-04-26T22:37:21.129Z,48.19
2023-04-26T22:39:49.300Z,47.96
2023-04-26T22:42:16.042Z,48.24
2023-04-26T22:44:42.508Z,48.19
2023-04-26T22:47:08.954Z,48.35
2023-04-26T22:49:35.611Z,48.15
2023-04-26T22:52:09.722Z,48.10
2023-04-26T22:54:40.995Z,48.45
2023-04-26T22:57:08.191Z,47.94
2023-04-26T22:59:34.870Z,48.55
2023-04-26T23:02:02.105Z,48.46
2023-04-26T23:04:28.630Z,48.58
2023-04-26T23:06:55.268Z,47.98
2023-04-26T23:09:21.741Z,48.44
2023-04-26T23:11:48.285Z,48.96
2023-04-26T23:14:15.788Z,49.94
2023-04-26T23:16:42.545Z,50.26
2023-04-26T23:19:09.586Z,50.61
2023-04-26T23:21:36.271Z,50.23
2023-04-26T23:24:03.286Z,51.17
2023-04-26T23:26:29.725Z,50.40
2023-04-26T23:28:57.155Z,50.15
2023-04-26T23:31:32.123Z,50.27
2023-04-26T23:34:09.944Z,50.60
2023-04-26T23:36:36.479Z,50.68
2023-04-26T23:39:03.752Z,50.55
2023-04-26T23:41:39.350Z,51.11
2023-04-26T23:44:05.868Z,51.12
2023-04-26T23:46:32.398Z,51.64
2023-04-26T23:48:58.921Z,51.18
2023-04-26T23:51:26.366Z,51.52
2023-04-26T23:53:52.965Z,52.03
2023-04-26T23:56:19.768Z,51.84
2023-04-26T23:58:46.502Z,51.41
